sensor_id;sensor_type;location;lat;lon;timestamp;pressure;altitude;pressure_sealevel;temperature;humidity
42067;BME280;27734;47.028;28.820;2023-03-18T00:00:48;101224.38;;;3.77;66.67
42067;BME280;27734;47.028;28.820;2023-03-18T00:03:20;101225.16;;;3.76;66.00
42067;BME280;27734;47.028;28.820;2023-03-18T00:06:00;101217.48;;;3.78;66.85
42067;BME280;27734;47.028;28.820;2023-03-18T00:08:32;101223.56;;;3.78;66.43
42067;BME280;27734;47.028;28.820;2023-03-18T00:11:04;101224.38;;;3.77;66.24
42067;BME280;27734;47.028;28.820;2023-03-18T00:13:36;101227.87;;;3.78;67.18
42067;BME280;27734;47.028;28.820;2023-03-18T00:16:10;101228.88;;;3.80;67.57
42067;BME280;27734;47.028;28.820;2023-03-18T00:18:42;101222.01;;;3.81;66.78
42067;BME280;27734;47.028;28.820;2023-03-18T00:21:13;101222.67;;;3.78;67.40
42067;BME280;27734;47.028;28.820;2023-03-18T00:23:45;101222.67;;;3.78;67.94
42067;BME280;27734;47.028;28.820;2023-03-18T00:26:17;101220.08;;;3.78;66.97
42067;BME280;27734;47.028;28.820;2023-03-18T00:28:49;101216.70;;;3.79;67.61
42067;BME280;27734;47.028;28.820;2023-03-18T00:31:22;101220.08;;;3.78;68.71
42067;BME280;27734;47.028;28.820;2023-03-18T00:33:53;101217.48;;;3.78;69.01
42067;BME280;27734;47.028;28.820;2023-03-18T00:36:25;101218.27;;;3.77;68.27
42067;BME280;27734;47.028;28.820;2023-03-18T00:38:56;101219.07;;;3.76;68.81
42067;BME280;27734;47.028;28.820;2023-03-18T00:41:28;101218.27;;;3.77;69.14
42067;BME280;27734;47.028;28.820;2023-03-18T00:44:01;101220.86;;;3.77;69.52
42067;BME280;27734;47.028;28.820;2023-03-18T00:46:34;101218.84;;;3.73;68.97
42067;BME280;27734;47.028;28.820;2023-03-18T00:49:08;101222.45;;;3.75;68.25
42067;BME280;27734;47.028;28.820;2023-03-18T00:51:39;101225.16;;;3.76;69.49
42067;BME280;27734;47.028;28.820;2023-03-18T00:54:12;101212.84;;;3.74;68.88
42067;BME280;27734;47.028;28.820;2023-03-18T00:56:47;101214.42;;;3.72;69.22
42067;BME280;27734;47.028;28.820;2023-03-18T00:59:18;101210.02;;;3.71;69.62
42067;BME280;27734;47.028;28.820;2023-03-18T01:01:49;101215.20;;;3.71;69.17
42067;BME280;27734;47.028;28.820;2023-03-18T01:04:21;101217.80;;;3.71;70.11
42067;BME280;27734;47.028;28.820;2023-03-18T01:06:52;101212.41;;;3.68;68.82
42067;BME280;27734;47.028;28.820;2023-03-18T01:09:24;101214.89;;;3.66;69.77
42067;BME280;27734;47.028;28.820;2023-03-18T01:11:55;101213.08;;;3.65;69.58
42067;BME280;27734;47.028;28.820;2023-03-18T01:14:26;101213.19;;;3.67;69.89
42067;BME280;27734;47.028;28.820;2023-03-18T01:16:58;101206.18;;;3.66;70.09
42067;BME280;27734;47.028;28.820;2023-03-18T01:19:31;101206.87;;;3.63;69.91
42067;BME280;27734;47.028;28.820;2023-03-18T01:22:03;101205.95;;;3.63;69.33
42067;BME280;27734;47.028;28.820;2023-03-18T01:24:39;101205.29;;;3.65;69.19
42067;BME280;27734;47.028;28.820;2023-03-18T01:27:12;101203.47;;;3.64;69.31
42067;BME280;27734;47.028;28.820;2023-03-18T01:29:43;101200.09;;;3.65;69.81
42067;BME280;27734;47.028;28.820;2023-03-18T01:32:18;101209.81;;;3.68;70.32
42067;BME280;27734;47.028;28.820;2023-03-18T01:34:51;101201.80;;;3.65;69.95
42067;BME280;27734;47.028;28.820;2023-03-18T01:37:22;101201.92;;;3.66;69.71
42067;BME280;27734;47.028;28.820;2023-03-18T01:40:00;101204.52;;;3.66;69.73
42067;BME280;27734;47.028;28.820;2023-03-18T01:42:32;101209.70;;;3.66;70.87
42067;BME280;27734;47.028;28.820;2023-03-18T01:45:19;101204.40;;;3.65;69.93
42067;BME280;27734;47.028;28.820;2023-03-18T01:47:53;101202.81;;;3.67;70.35
42067;BME280;27734;47.028;28.820;2023-03-18T01:50:29;101192.42;;;3.67;69.96
42067;BME280;27734;47.028;28.820;2023-03-18T01:53:04;101196.73;;;3.66;70.37
42067;BME280;27734;47.028;28.820;2023-03-18T01:55:38;101204.62;;;3.68;71.63
42067;BME280;27734;47.028;28.820;2023-03-18T01:58:14;101195.02;;;3.67;70.20
42067;BME280;27734;47.028;28.820;2023-03-18T02:00:50;101199.52;;;3.69;70.83
42067;BME280;27734;47.028;28.820;2023-03-18T02:03:23;101197.15;;;3.72;70.79
42067;BME280;27734;47.028;28.820;2023-03-18T02:05:56;101201.68;;;3.75;70.41
42067;BME280;27734;47.028;28.820;2023-03-18T02:08:28;101202.80;;;3.78;70.60
42067;BME280;27734;47.028;28.820;2023-03-18T02:11:00;101203.84;;;3.81;70.83
42067;BME280;27734;47.028;28.820;2023-03-18T02:13:34;101207.44;;;3.83;70.31
42067;BME280;27734;47.028;28.820;2023-03-18T02:16:11;101205.07;;;3.86;70.98
42067;BME280;27734;47.028;28.820;2023-03-18T02:18:47;101209.48;;;3.87;72.01
42067;BME280;27734;47.028;28.820;2023-03-18T02:21:31;101207.11;;;3.90;71.02
42067;BME280;27734;47.028;28.820;2023-03-18T02:24:11;101209.02;;;3.92;70.91
42067;BME280;27734;47.028;28.820;2023-03-18T02:26:49;101206.41;;;3.92;70.83
42067;BME280;27734;47.028;28.820;2023-03-18T02:29:29;101206.64;;;3.95;71.43
42067;BME280;27734;47.028;28.820;2023-03-18T02:32:06;101209.35;;;3.97;71.26
42067;BME280;27734;47.028;28.820;2023-03-18T02:34:38;101215.47;;;3.98;71.24
42067;BME280;27734;47.028;28.820;2023-03-18T02:37:15;101210.28;;;3.98;71.58
42067;BME280;27734;47.028;28.820;2023-03-18T02:39:46;101216.25;;;3.96;71.31
42067;BME280;27734;47.028;28.820;2023-03-18T02:42:28;101212.87;;;3.98;71.99
42067;BME280;27734;47.028;28.820;2023-03-18T02:45:01;101212.98;;;3.99;72.73
42067;BME280;27734;47.028;28.820;2023-03-18T02:47:43;101212.87;;;3.98;72.80
42067;BME280;27734;47.028;28.820;2023-03-18T02:50:14;101215.47;;;3.98;74.75
42067;BME280;27734;47.028;28.820;2023-03-18T02:52:46;101213.99;;;4.01;73.16
42067;BME280;27734;47.028;28.820;2023-03-18T02:55:18;101216.59;;;4.01;72.94
42067;BME280;27734;47.028;28.820;2023-03-18T02:57:49;101211.28;;;4.00;72.67
42067;BME280;27734;47.028;28.820;2023-03-18T03:00:21;101213.10;;;4.01;73.51
42067;BME280;27734;47.028;28.820;2023-03-18T03:02:52;101211.39;;;4.01;73.07
42067;BME280;27734;47.028;28.820;2023-03-18T03:05:24;101211.51;;;4.03;72.48
42067;BME280;27734;47.028;28.820;2023-03-18T03:07:56;101218.41;;;4.02;72.71
42067;BME280;27734;47.028;28.820;2023-03-18T03:10:27;101225.27;;;4.02;73.41
42067;BME280;27734;47.028;28.820;2023-03-18T03:12:59;101213.21;;;4.02;73.93
42067;BME280;27734;47.028;28.820;2023-03-18T03:15:30;101216.47;;;4.00;73.75
42067;BME280;27734;47.028;28.820;2023-03-18T03:18:02;101212.06;;;3.99;73.43
42067;BME280;27734;47.028;28.820;2023-03-18T03:20:34;101218.95;;;3.98;73.86
42067;BME280;27734;47.028;28.820;2023-03-18T03:23:07;101214.77;;;4.00;73.67
42067;BME280;27734;47.028;28.820;2023-03-18T03:25:40;101221.11;;;4.04;73.65
42067;BME280;27734;47.028;28.820;2023-03-18T03:28:14;101215.11;;;4.05;73.03
42067;BME280;27734;47.028;28.820;2023-03-18T03:30:49;101206.65;;;4.07;73.55
42067;BME280;27734;47.028;28.820;2023-03-18T03:33:20;101217.04;;;4.07;74.10
42067;BME280;27734;47.028;28.820;2023-03-18T03:35:52;101208.36;;;4.07;74.22
42067;BME280;27734;47.028;28.820;2023-03-18T03:38:24;101207.31;;;4.05;73.47
42067;BME280;27734;47.028;28.820;2023-03-18T03:40:58;101210.73;;;4.04;73.94
42067;BME280;27734;47.028;28.820;2023-03-18T03:43:29;101205.64;;;4.05;73.57
42067;BME280;27734;47.028;28.820;2023-03-18T03:46:00;101211.84;;;4.07;74.10
42067;BME280;27734;47.028;28.820;2023-03-18T03:48:32;101205.76;;;4.07;73.93
42067;BME280;27734;47.028;28.820;2023-03-18T03:51:04;101205.76;;;4.07;73.65
42067;BME280;27734;47.028;28.820;2023-03-18T03:53:36;101212.84;;;4.09;73.85
42067;BME280;27734;47.028;28.820;2023-03-18T03:56:08;101207.54;;;4.08;73.87
42067;BME280;27734;47.028;28.820;2023-03-18T03:58:40;101209.36;;;4.09;73.51
42067;BME280;27734;47.028;28.820;2023-03-18T04:01:12;101211.06;;;4.08;73.73
42067;BME280;27734;47.028;28.820;2023-03-18T04:03:43;101210.25;;;4.09;74.19
42067;BME280;27734;47.028;28.820;2023-03-18T04:06:14;101212.95;;;4.11;74.96
42067;BME280;27734;47.028;28.820;2023-03-18T04:08:51;101209.47;;;4.10;73.97
42067;BME280;27734;47.028;28.820;2023-03-18T04:11:23;101212.06;;;4.10;74.44
42067;BME280;27734;47.028;28.820;2023-03-18T04:13:54;101213.89;;;4.11;73.95
42067;BME280;27734;47.028;28.820;2023-03-18T04:16:26;101219.19;;;4.13;74.26
42067;BME280;27734;47.028;28.820;2023-03-18T04:18:57;101214.00;;;4.13;74.35
42067;BME280;27734;47.028;28.820;2023-03-18T04:21:29;101214.22;;;4.16;75.02
42067;BME280;27734;47.028;28.820;2023-03-18T04:24:01;101210.70;;;4.16;74.66
42067;BME280;27734;47.028;28.820;2023-03-18T04:26:32;101215.12;;;4.17;75.78
42067;BME280;27734;47.028;28.820;2023-03-18T04:29:05;101221.09;;;4.16;75.30
42067;BME280;27734;47.028;28.820;2023-03-18T04:31:37;101217.71;;;4.17;75.23
42067;BME280;27734;47.028;28.820;2023-03-18T04:34:09;101210.03;;;4.18;74.53
42067;BME280;27734;47.028;28.820;2023-03-18T04:36:40;101219.53;;;4.18;74.43
42067;BME280;27734;47.028;28.820;2023-03-18T04:39:11;101220.53;;;4.20;74.39
42067;BME280;27734;47.028;28.820;2023-03-18T04:41:43;101218.83;;;4.20;75.66
42067;BME280;27734;47.028;28.820;2023-03-18T04:44:14;101222.35;;;4.21;74.41
42067;BME280;27734;47.028;28.820;2023-03-18T04:46:51;101224.95;;;4.21;75.95
42067;BME280;27734;47.028;28.820;2023-03-18T04:49:22;101223.24;;;4.21;75.58
42067;BME280;27734;47.028;28.820;2023-03-18T04:51:54;101231.03;;;4.21;75.57
42067;BME280;27734;47.028;28.820;2023-03-18T04:54:30;101228.55;;;4.23;75.74
42067;BME280;27734;47.028;28.820;2023-03-18T04:57:03;101230.22;;;4.22;76.46
42067;BME280;27734;47.028;28.820;2023-03-18T04:59:38;101233.75;;;4.23;75.76
42067;BME280;27734;47.028;28.820;2023-03-18T05:02:10;101232.04;;;4.23;75.43
42067;BME280;27734;47.028;28.820;2023-03-18T05:04:41;101231.27;;;4.24;76.73
42067;BME280;27734;47.028;28.820;2023-03-18T05:07:15;101235.53;;;4.24;76.24
42067;BME280;27734;47.028;28.820;2023-03-18T05:09:53;101238.94;;;4.23;76.03
42067;BME280;27734;47.028;28.820;2023-03-18T05:12:25;101247.73;;;4.25;76.04
42067;BME280;27734;47.028;28.820;2023-03-18T05:14:56;101247.08;;;4.27;75.83
42067;BME280;27734;47.028;28.820;2023-03-18T05:17:28;101246.48;;;4.31;76.19
42067;BME280;27734;47.028;28.820;2023-03-18T05:20:02;101242.88;;;4.29;76.04
42067;BME280;27734;47.028;28.820;2023-03-18T05:22:34;101246.48;;;4.31;76.05
42067;BME280;27734;47.028;28.820;2023-03-18T05:25:30;101248.30;;;4.32;77.12
42067;BME280;27734;47.028;28.820;2023-03-18T05:28:02;101240.39;;;4.31;75.86
42067;BME280;27734;47.028;28.820;2023-03-18T05:30:40;101248.63;;;4.37;76.87
42067;BME280;27734;47.028;28.820;2023-03-18T05:33:15;101245.03;;;4.35;76.88
42067;BME280;27734;47.028;28.820;2023-03-18T05:35:53;101251.23;;;4.37;76.99
42067;BME280;27734;47.028;28.820;2023-03-18T05:38:28;101248.75;;;4.39;77.04
42067;BME280;27734;47.028;28.820;2023-03-18T05:41:00;101248.97;;;4.42;78.99
42067;BME280;27734;47.028;28.820;2023-03-18T05:43:39;101248.30;;;4.44;77.18
42067;BME280;27734;47.028;28.820;2023-03-18T05:46:10;101259.59;;;4.45;77.20
42067;BME280;27734;47.028;28.820;2023-03-18T05:48:55;101260.03;;;4.51;77.35
42067;BME280;27734;47.028;28.820;2023-03-18T05:51:27;101262.73;;;4.53;77.19
42067;BME280;27734;47.028;28.820;2023-03-18T05:53:59;101265.23;;;4.51;77.55
42067;BME280;27734;47.028;28.820;2023-03-18T05:56:35;101259.36;;;4.54;77.11
42067;BME280;27734;47.028;28.820;2023-03-18T05:59:08;101278.55;;;4.56;77.20
42067;BME280;27734;47.028;28.820;2023-03-18T06:01:46;101283.87;;;4.57;77.20
42067;BME280;27734;47.028;28.820;2023-03-18T06:04:18;101271.98;;;4.61;76.95
42067;BME280;27734;47.028;28.820;2023-03-18T06:06:49;101277.52;;;4.65;77.31
42067;BME280;27734;47.028;28.820;2023-03-18T06:09:21;101277.73;;;4.68;77.40
42067;BME280;27734;47.028;28.820;2023-03-18T06:11:53;101281.16;;;4.67;77.88
42067;BME280;27734;47.028;28.820;2023-03-18T06:14:24;101286.12;;;4.64;78.39
42067;BME280;27734;47.028;28.820;2023-03-18T06:16:56;101279.11;;;4.63;78.62
42067;BME280;27734;47.028;28.820;2023-03-18T06:19:28;101286.34;;;4.67;77.79
42067;BME280;27734;47.028;28.820;2023-03-18T06:22:01;101292.55;;;4.70;77.93
42067;BME280;27734;47.028;28.820;2023-03-18T06:24:32;101296.97;;;4.71;80.02
42067;BME280;27734;47.028;28.820;2023-03-18T06:27:03;101304.66;;;4.69;80.08
42067;BME280;27734;47.028;28.820;2023-03-18T06:29:36;101291.55;;;4.67;78.91
42067;BME280;27734;47.028;28.820;2023-03-18T06:32:12;101280.22;;;4.67;80.53
42067;BME280;27734;47.028;28.820;2023-03-18T06:34:43;101281.94;;;4.66;80.17
42067;BME280;27734;47.028;28.820;2023-03-18T06:37:15;101290.06;;;4.71;80.55
42067;BME280;27734;47.028;28.820;2023-03-18T06:39:47;101295.94;;;4.68;80.92
42067;BME280;27734;47.028;28.820;2023-03-18T06:42:18;101302.17;;;4.71;79.49
42067;BME280;27734;47.028;28.820;2023-03-18T06:44:58;101301.47;;;4.73;79.50
42067;BME280;27734;47.028;28.820;2023-03-18T06:47:41;101294.67;;;4.75;80.24
42067;BME280;27734;47.028;28.820;2023-03-18T06:50:13;101300.09;;;4.78;80.61
42067;BME280;27734;47.028;28.820;2023-03-18T06:52:44;101295.92;;;4.80;82.64
42067;BME280;27734;47.028;28.820;2023-03-18T06:55:17;101295.00;;;4.80;82.95
42067;BME280;27734;47.028;28.820;2023-03-18T06:57:48;101293.33;;;4.80;82.65
42067;BME280;27734;47.028;28.820;2023-03-18T07:00:23;101297.71;;;4.81;83.99
42067;BME280;27734;47.028;28.820;2023-03-18T07:02:54;101296.92;;;4.82;84.10
42067;BME280;27734;47.028;28.820;2023-03-18T07:05:28;101288.45;;;4.85;83.97
42067;BME280;27734;47.028;28.820;2023-03-18T07:07:59;101296.36;;;4.86;83.46
42067;BME280;27734;47.028;28.820;2023-03-18T07:10:31;101295.88;;;4.92;84.89
42067;BME280;27734;47.028;28.820;2023-03-18T07:13:09;101292.60;;;4.95;83.74
42067;BME280;27734;47.028;28.820;2023-03-18T07:15:42;101298.02;;;4.98;82.58
42067;BME280;27734;47.028;28.820;2023-03-18T07:18:14;101297.34;;;5.00;83.17
42067;BME280;27734;47.028;28.820;2023-03-18T07:20:46;101294.36;;;5.08;83.00
42067;BME280;27734;47.028;28.820;2023-03-18T07:23:18;101300.92;;;5.14;81.52
42067;BME280;27734;47.028;28.820;2023-03-18T07:25:49;101300.32;;;5.18;82.00
42067;BME280;27734;47.028;28.820;2023-03-18T07:28:22;101303.25;;;5.23;82.21
42067;BME280;27734;47.028;28.820;2023-03-18T07:30:54;101301.67;;;5.25;82.77
42067;BME280;27734;47.028;28.820;2023-03-18T07:33:26;101303.67;;;5.29;81.64
42067;BME280;27734;47.028;28.820;2023-03-18T07:35:57;101306.59;;;5.34;81.38
42067;BME280;27734;47.028;28.820;2023-03-18T07:38:29;101303.31;;;5.36;81.34
42067;BME280;27734;47.028;28.820;2023-03-18T07:41:00;101295.72;;;5.39;81.60
42067;BME280;27734;47.028;28.820;2023-03-18T07:43:31;101294.02;;;5.40;81.56
42067;BME280;27734;47.028;28.820;2023-03-18T07:46:04;101299.32;;;5.42;81.14
42067;BME280;27734;47.028;28.820;2023-03-18T07:48:35;101301.25;;;5.44;80.90
42067;BME280;27734;47.028;28.820;2023-03-18T07:51:06;101296.25;;;5.47;81.18
42067;BME280;27734;47.028;28.820;2023-03-18T07:53:38;101306.16;;;5.53;81.64
42067;BME280;27734;47.028;28.820;2023-03-18T07:56:10;101300.95;;;5.53;81.64
42067;BME280;27734;47.028;28.820;2023-03-18T07:58:41;101297.47;;;5.52;81.52
42067;BME280;27734;47.028;28.820;2023-03-18T08:01:13;101299.49;;;5.56;80.65
42067;BME280;27734;47.028;28.820;2023-03-18T08:03:47;101310.11;;;5.60;81.43
42067;BME280;27734;47.028;28.820;2023-03-18T08:06:18;101317.72;;;5.56;81.75
42067;BME280;27734;47.028;28.820;2023-03-18T08:08:50;101322.81;;;5.55;81.30
42067;BME280;27734;47.028;28.820;2023-03-18T08:11:21;101326.52;;;5.58;81.28
42067;BME280;27734;47.028;28.820;2023-03-18T08:13:52;101322.20;;;5.59;81.17
42067;BME280;27734;47.028;28.820;2023-03-18T08:16:24;101312.93;;;5.63;80.93
42067;BME280;27734;47.028;28.820;2023-03-18T08:18:55;101325.23;;;5.65;80.85
42067;BME280;27734;47.028;28.820;2023-03-18T08:21:27;101318.34;;;5.66;80.90
42067;BME280;27734;47.028;28.820;2023-03-18T08:23:58;101319.34;;;5.68;81.22
42067;BME280;27734;47.028;28.820;2023-03-18T08:26:30;101313.45;;;5.70;80.65
42067;BME280;27734;47.028;28.820;2023-03-18T08:29:01;101320.87;;;5.78;81.11
42067;BME280;27734;47.028;28.820;2023-03-18T08:31:32;101314.26;;;5.83;81.15
42067;BME280;27734;47.028;28.820;2023-03-18T08:34:04;101308.09;;;5.94;80.85
42067;BME280;27734;47.028;28.820;2023-03-18T08:36:36;101317.77;;;6.08;80.91
42067;BME280;27734;47.028;28.820;2023-03-18T08:39:07;101308.84;;;6.18;80.73
42067;BME280;27734;47.028;28.820;2023-03-18T08:41:38;101316.38;;;6.27;80.83
42067;BME280;27734;47.028;28.820;2023-03-18T08:44:10;101314.97;;;6.32;80.41
42067;BME280;27734;47.028;28.820;2023-03-18T08:46:42;101308.87;;;6.32;80.74
42067;BME280;27734;47.028;28.820;2023-03-18T08:49:13;101311.98;;;6.39;80.56
42067;BME280;27734;47.028;28.820;2023-03-18T08:51:44;101314.36;;;6.50;80.75
42067;BME280;27734;47.028;28.820;2023-03-18T08:54:15;101311.36;;;6.57;80.66
42067;BME280;27734;47.028;28.820;2023-03-18T08:56:47;101309.95;;;6.62;80.44
42067;BME280;27734;47.028;28.820;2023-03-18T08:59:18;101312.55;;;6.62;80.42
42067;BME280;27734;47.028;28.820;2023-03-18T09:01:50;101309.75;;;6.59;80.37
42067;BME280;27734;47.028;28.820;2023-03-18T09:04:22;101314.77;;;6.56;80.43
42067;BME280;27734;47.028;28.820;2023-03-18T09:06:54;101318.89;;;6.52;80.29
42067;BME280;27734;47.028;28.820;2023-03-18T09:09:26;101324.99;;;6.53;80.42
42067;BME280;27734;47.028;28.820;2023-03-18T09:11:57;101321.59;;;6.54;80.04
42067;BME280;27734;47.028;28.820;2023-03-18T09:14:28;101311.66;;;6.61;79.96
42067;BME280;27734;47.028;28.820;2023-03-18T09:16:59;101319.19;;;6.70;79.94
42067;BME280;27734;47.028;28.820;2023-03-18T09:19:31;101315.95;;;6.74;80.25
42067;BME280;27734;47.028;28.820;2023-03-18T09:22:02;101323.97;;;6.77;79.78
42067;BME280;27734;47.028;28.820;2023-03-18T09:24:33;101324.37;;;6.83;80.12
42067;BME280;27734;47.028;28.820;2023-03-18T09:27:05;101324.95;;;6.93;80.16
42067;BME280;27734;47.028;28.820;2023-03-18T09:29:36;101327.06;;;6.98;79.89
42067;BME280;27734;47.028;28.820;2023-03-18T09:32:08;101334.80;;;6.97;79.07
42067;BME280;27734;47.028;28.820;2023-03-18T09:34:39;101327.16;;;7.00;79.66
42067;BME280;27734;47.028;28.820;2023-03-18T09:37:11;101323.12;;;7.05;79.37
42067;BME280;27734;47.028;28.820;2023-03-18T09:39:43;101314.50;;;7.06;79.36
42067;BME280;27734;47.028;28.820;2023-03-18T09:42:39;101319.18;;;7.12;78.72
42067;BME280;27734;47.028;28.820;2023-03-18T09:45:18;101319.56;;;7.18;79.08
42067;BME280;27734;47.028;28.820;2023-03-18T09:47:59;101326.09;;;7.25;79.31
42067;BME280;27734;47.028;28.820;2023-03-18T09:50:40;101317.53;;;7.27;79.46
42067;BME280;27734;47.028;28.820;2023-03-18T09:53:18;101317.53;;;7.27;78.88
42067;BME280;27734;47.028;28.820;2023-03-18T09:55:54;101319.95;;;7.24;78.30
42067;BME280;27734;47.028;28.820;2023-03-18T09:58:30;101322.05;;;7.30;78.51
42067;BME280;27734;47.028;28.820;2023-03-18T10:01:05;101318.45;;;7.28;78.23
42067;BME280;27734;47.028;28.820;2023-03-18T10:03:42;101320.42;;;7.32;78.63
42067;BME280;27734;47.028;28.820;2023-03-18T10:06:17;101323.23;;;7.35;78.19
42067;BME280;27734;47.028;28.820;2023-03-18T10:08:55;101319.47;;;7.45;78.14
42067;BME280;27734;47.028;28.820;2023-03-18T10:11:32;101316.57;;;7.40;77.88
42067;BME280;27734;47.028;28.820;2023-03-18T10:14:18;101318.38;;;7.41;77.22
42067;BME280;27734;47.028;28.820;2023-03-18T10:17:02;101322.08;;;7.45;77.18
42067;BME280;27734;47.028;28.820;2023-03-18T10:19:37;101316.53;;;7.53;77.14
42067;BME280;27734;47.028;28.820;2023-03-18T10:22:24;101314.66;;;7.66;77.65
42067;BME280;27734;47.028;28.820;2023-03-18T10:25:07;101309.90;;;7.73;77.70
42067;BME280;27734;47.028;28.820;2023-03-18T10:27:54;101313.95;;;7.83;76.58
42067;BME280;27734;47.028;28.820;2023-03-18T10:30:38;101308.30;;;7.90;77.51
42067;BME280;27734;47.028;28.820;2023-03-18T10:33:19;101309.46;;;7.96;76.94
42067;BME280;27734;47.028;28.820;2023-03-18T10:35:56;101306.23;;;8.00;76.82
42067;BME280;27734;47.028;28.820;2023-03-18T10:38:30;101301.45;;;8.07;77.09
42067;BME280;27734;47.028;28.820;2023-03-18T10:41:15;101301.16;;;8.18;76.32
42067;BME280;27734;47.028;28.820;2023-03-18T10:43:48;101307.48;;;8.21;76.00
42067;BME280;27734;47.028;28.820;2023-03-18T10:46:19;101305.14;;;8.11;73.73
42067;BME280;27734;47.028;28.820;2023-03-18T10:48:53;101304.06;;;8.07;75.57
42067;BME280;27734;47.028;28.820;2023-03-18T10:51:29;101308.37;;;8.07;75.49
42067;BME280;27734;47.028;28.820;2023-03-18T10:54:09;101310.71;;;8.02;75.22
42067;BME280;27734;47.028;28.820;2023-03-18T10:56:41;101305.86;;;7.94;74.79
42067;BME280;27734;47.028;28.820;2023-03-18T10:59:15;101306.39;;;7.88;74.47
42067;BME280;27734;47.028;28.820;2023-03-18T11:01:49;101301.91;;;7.85;75.11
42067;BME280;27734;47.028;28.820;2023-03-18T11:04:23;101298.45;;;7.86;75.03
42067;BME280;27734;47.028;28.820;2023-03-18T11:06:56;101298.64;;;7.89;75.02
42067;BME280;27734;47.028;28.820;2023-03-18T11:09:32;101298.39;;;8.00;75.58
42067;BME280;27734;47.028;28.820;2023-03-18T11:12:13;101297.38;;;8.13;75.74
42067;BME280;27734;47.028;28.820;2023-03-18T11:14:48;101298.81;;;8.22;74.87
42067;BME280;27734;47.028;28.820;2023-03-18T11:17:24;101291.05;;;8.24;75.45
42067;BME280;27734;47.028;28.820;2023-03-18T11:20:05;101279.08;;;8.27;74.65
42067;BME280;27734;47.028;28.820;2023-03-18T11:22:44;101293.94;;;8.28;74.67
42067;BME280;27734;47.028;28.820;2023-03-18T11:25:19;101295.75;;;8.30;74.79
42067;BME280;27734;47.028;28.820;2023-03-18T11:27:57;101295.75;;;8.30;74.84
42067;BME280;27734;47.028;28.820;2023-03-18T11:30:36;101295.75;;;8.30;74.41
42067;BME280;27734;47.028;28.820;2023-03-18T11:33:14;101298.01;;;8.23;73.13
42067;BME280;27734;47.028;28.820;2023-03-18T11:35:49;101290.78;;;8.19;72.96
42067;BME280;27734;47.028;28.820;2023-03-18T11:38:25;101289.27;;;8.23;73.76
42067;BME280;27734;47.028;28.820;2023-03-18T11:41:08;101285.65;;;8.21;74.17
42067;BME280;27734;47.028;28.820;2023-03-18T11:43:55;101294.50;;;8.23;73.88
42067;BME280;27734;47.028;28.820;2023-03-18T11:46:29;101277.18;;;8.25;74.32
42067;BME280;27734;47.028;28.820;2023-03-18T11:49:02;101286.92;;;8.27;73.65
42067;BME280;27734;47.028;28.820;2023-03-18T11:51:43;101278.33;;;8.30;73.45
42067;BME280;27734;47.028;28.820;2023-03-18T11:54:28;101279.26;;;8.31;73.73
42067;BME280;27734;47.028;28.820;2023-03-18T11:57:10;101270.92;;;8.38;73.92
42067;BME280;27734;47.028;28.820;2023-03-18T11:59:49;101278.77;;;8.38;73.20
42067;BME280;27734;47.028;28.820;2023-03-18T12:02:45;101283.38;;;8.42;74.00
42067;BME280;27734;47.028;28.820;2023-03-18T12:05:38;101279.42;;;8.49;73.76
42067;BME280;27734;47.028;28.820;2023-03-18T12:08:20;101274.63;;;8.56;73.48
42067;BME280;27734;47.028;28.820;2023-03-18T12:11:00;101282.20;;;8.52;71.25
42067;BME280;27734;47.028;28.820;2023-03-18T12:13:45;101278.53;;;8.48;72.25
42067;BME280;27734;47.028;28.820;2023-03-18T12:16:30;101283.59;;;8.45;72.25
42067;BME280;27734;47.028;28.820;2023-03-18T12:19:18;101275.00;;;8.33;72.16
42067;BME280;27734;47.028;28.820;2023-03-18T12:22:17;101277.70;;;8.34;71.97
42067;BME280;27734;47.028;28.820;2023-03-18T12:25:10;101274.69;;;8.43;72.02
42067;BME280;27734;47.028;28.820;2023-03-18T12:27:54;101278.14;;;8.42;71.17
42067;BME280;27734;47.028;28.820;2023-03-18T12:30:46;101282.54;;;8.43;71.86
42067;BME280;27734;47.028;28.820;2023-03-18T12:33:41;101278.36;;;8.45;71.46
42067;BME280;27734;47.028;28.820;2023-03-18T12:36:19;101277.78;;;8.51;72.18
42067;BME280;27734;47.028;28.820;2023-03-18T12:39:13;101277.23;;;8.56;71.74
42067;BME280;27734;47.028;28.820;2023-03-18T12:41:56;101282.35;;;8.70;71.77
42067;BME280;27734;47.028;28.820;2023-03-18T12:44:46;101269.87;;;8.80;72.46
42067;BME280;27734;47.028;28.820;2023-03-18T12:47:24;101273.55;;;8.84;71.74
42067;BME280;27734;47.028;28.820;2023-03-18T12:50:01;101273.38;;;8.81;71.64
42067;BME280;27734;47.028;28.820;2023-03-18T12:52:38;101272.95;;;8.73;71.62
42067;BME280;27734;47.028;28.820;2023-03-18T12:55:16;101281.43;;;8.69;71.10
42067;BME280;27734;47.028;28.820;2023-03-18T12:57:51;101279.22;;;8.60;71.13
42067;BME280;27734;47.028;28.820;2023-03-18T13:00:28;101277.87;;;8.52;71.10
42067;BME280;27734;47.028;28.820;2023-03-18T13:03:02;101274.27;;;8.50;71.95
42067;BME280;27734;47.028;28.820;2023-03-18T13:05:41;101274.91;;;8.46;71.56
42067;BME280;27734;47.028;28.820;2023-03-18T13:09:00;101272.08;;;8.43;71.32
42067;BME280;27734;47.028;28.820;2023-03-18T13:11:53;101270.30;;;8.42;71.57
42067;BME280;27734;47.028;28.820;2023-03-18T13:14:45;101265.19;;;8.43;71.10
42067;BME280;27734;47.028;28.820;2023-03-18T13:17:23;101268.31;;;8.38;71.47
42067;BME280;27734;47.028;28.820;2023-03-18T13:19:57;101266.36;;;8.34;71.41
42067;BME280;27734;47.028;28.820;2023-03-18T13:25:47;101278.07;;;8.25;70.43
42067;BME280;27734;47.028;28.820;2023-03-18T13:28:34;101269.16;;;8.22;71.13
42067;BME280;27734;47.028;28.820;2023-03-18T13:31:21;101270.97;;;8.23;71.39
42067;BME280;27734;47.028;28.820;2023-03-18T13:34:12;101271.06;;;8.24;71.55